CheckWX is a tool to help pilots better visualize weather data.  It is not intended as a substitute for an official pre-flight weather briefing.

16:28:26 UTC

LGTG TAF
Tanagra Airport
Tanagra, Greece
TAF LGTG 290800Z 2909/2918 33008KT 9999 SCT025 SCT070 PROB30 TEMPO 2912/2917 5000 RA SCT025 BKN070 PROB30 TEMPO 2914/2917 4000 TSRA FEW018CB SCT025 BKN070

May-29@
09:00 UTC

May-29 @ 09:00 UTC

May-29@
18:00 UTC

May-29 @ 18:00 UTC

TAF LGTG 290800Z 2909/2918 33008KT 9999 SCT025 SCT070
Wind
  • 330° at 8 KTS
Cloud Levels
  • Scattered at 2,500' AGL
  • Scattered at 7,000' AGL

May-29@
12:00 UTC

May-29 @ 12:00 UTC

May-29@
17:00 UTC

May-29 @ 17:00 UTC

PROB30 TEMPO 2912/2917 5000 RA SCT025 BKN070

Temporary - 30% Likelihood

Temporary - 30% Likelihood during this time.

Conditions
Rain
Cloud Levels
  • Scattered at 2,500' AGL
  • Broken at 7,000' AGL

May-29@
14:00 UTC

May-29 @ 14:00 UTC

May-29@
17:00 UTC

May-29 @ 17:00 UTC

PROB30 TEMPO 2914/2917 4000 TSRA FEW018CB SCT025 BKN070

Temporary - 30% Likelihood

Temporary - 30% Likelihood during this time.

Conditions
Thunderstorm, Rain
Cloud Levels
  • Few at 1,800' AGL
  • Scattered at 2,500' AGL
  • Broken at 7,000' AGL